Erhard, Minnesota
Current Conditions -  °F | °C
As of 4:34 AM on Sunday 21 Dec 2014 (Local Time) from KFFM Reporting Station
Haze Haze  
Wind Chill: 20°   Ceiling: 400
Heat Index: 30°   Visibility: 4mi
Dew Point: 28°   Wind: 13mph
Humidity: 93%   Direction: 190°S
Pressure: 29.86"   Gusts: 17mph
Location:  46.49°N, 96.1°W
Report Text: KFFM 211034Z AUTO 19011G15KT 4SM BR OVC004 M01/M02 A2986 RMK AO2
Loading
Personal Weather Stations






























Interactive Weather Map New forecast layout! Learn more

10-Day Weather Forecast

Advertisements
Track Severe Weather on mobile